createdAt,value
2023-02-21T00:02:48.729Z,69.84
2023-02-21T00:05:34.264Z,70.03
2023-02-21T00:08:19.800Z,70.06
2023-02-21T00:11:04.871Z,69.93
2023-02-21T00:13:49.864Z,69.99
2023-02-21T00:16:35.715Z,70.06
2023-02-21T00:19:22.877Z,69.96
2023-02-21T00:22:08.282Z,70.17
2023-02-21T00:24:53.711Z,70.33
2023-02-21T00:27:39.213Z,70.48
2023-02-21T00:30:25.221Z,70.52
2023-02-21T00:33:10.910Z,70.70
2023-02-21T00:35:56.281Z,70.69
2023-02-21T00:38:41.896Z,70.91
2023-02-21T00:41:27.446Z,70.94
2023-02-21T00:44:12.964Z,70.74
2023-02-21T00:47:00.334Z,70.66
2023-02-21T00:49:45.599Z,70.96
2023-02-21T00:52:30.485Z,70.89
2023-02-21T00:55:15.334Z,70.92
2023-02-21T00:58:00.486Z,70.93
2023-02-21T01:00:45.538Z,71.21
2023-02-21T01:03:31.070Z,71.37
2023-02-21T01:06:16.760Z,71.73
2023-02-21T01:09:03.550Z,71.64
2023-02-21T01:11:49.690Z,72.10
2023-02-21T01:14:35.452Z,72.12
2023-02-21T01:17:20.655Z,72.01
2023-02-21T01:20:05.653Z,71.99
2023-02-21T01:22:50.936Z,72.02
2023-02-21T01:25:36.359Z,72.00
2023-02-21T01:28:21.783Z,72.15
2023-02-21T01:31:07.401Z,72.36
2023-02-21T01:33:57.650Z,72.35
2023-02-21T01:36:43.591Z,72.54
2023-02-21T01:39:29.639Z,72.58
2023-02-21T01:42:15.495Z,72.64
2023-02-21T01:45:05.517Z,72.75
2023-02-21T01:47:51.367Z,72.86
2023-02-21T01:50:43.062Z,73.06
2023-02-21T01:53:35.076Z,73.18
2023-02-21T01:56:20.683Z,73.38
2023-02-21T01:59:07.708Z,73.45
2023-02-21T02:02:08.551Z,73.51
2023-02-21T02:04:53.642Z,73.36
2023-02-21T02:07:38.886Z,73.63
2023-02-21T02:10:25.466Z,73.80
2023-02-21T02:12:51.875Z,73.66
2023-02-21T02:15:27.799Z,73.58
2023-02-21T02:18:06.561Z,73.81
2023-02-21T02:20:42.408Z,73.78
2023-02-21T02:23:33.623Z,74.05
2023-02-21T02:26:06.130Z,73.71
2023-02-21T02:29:00.790Z,73.95
2023-02-21T02:31:45.886Z,73.86
2023-02-21T02:34:31.432Z,73.93
2023-02-21T02:37:10.304Z,74.22
2023-02-21T02:39:45.870Z,74.23
2023-02-21T02:42:34.246Z,74.13
2023-02-21T02:45:05.549Z,74.26
2023-02-21T02:47:35.181Z,74.57
2023-02-21T02:50:03.722Z,74.43
2023-02-21T02:52:30.162Z,74.53
2023-02-21T02:55:02.586Z,74.58
2023-02-21T02:57:37.559Z,74.31
2023-02-21T03:00:05.744Z,74.55
2023-02-21T03:02:52.482Z,74.52
2023-02-21T03:05:34.720Z,74.52
2023-02-21T03:08:29.568Z,74.64
2023-02-21T03:11:16.683Z,74.71
2023-02-21T03:13:48.659Z,74.57
2023-02-21T03:16:33.659Z,74.39
2023-02-21T03:19:22.753Z,74.57
2023-02-21T03:21:50.490Z,74.65
2023-02-21T03:24:18.817Z,74.83
2023-02-21T03:26:47.939Z,74.76
2023-02-21T03:29:16.218Z,74.80
2023-02-21T03:31:46.387Z,74.71
2023-02-21T03:34:13.545Z,74.90
2023-02-21T03:36:40.209Z,74.96
2023-02-21T03:39:07.027Z,74.88
2023-02-21T03:41:33.540Z,74.74
2023-02-21T03:44:00.036Z,75.06
2023-02-21T03:46:26.794Z,75.06
2023-02-21T03:48:53.323Z,75.18
2023-02-21T03:51:20.749Z,75.34
2023-02-21T03:53:47.168Z,75.25
2023-02-21T03:56:13.747Z,75.24
2023-02-21T03:58:40.194Z,75.24
2023-02-21T04:01:06.690Z,75.24
2023-02-21T04:03:33.223Z,75.31
2023-02-21T04:06:03.645Z,75.28
2023-02-21T04:08:30.217Z,75.39
2023-02-21T04:10:56.720Z,75.54
2023-02-21T04:13:24.307Z,75.47
2023-02-21T04:15:50.915Z,75.84
2023-02-21T04:18:17.352Z,75.74
2023-02-21T04:20:45.858Z,75.63
2023-02-21T04:23:17.113Z,75.60
2023-02-21T04:25:43.865Z,75.43
2023-02-21T04:28:10.160Z,75.54
2023-02-21T04:30:36.849Z,75.51
2023-02-21T04:33:04.016Z,75.72
2023-02-21T04:35:30.669Z,75.59
2023-02-21T04:37:57.359Z,75.49
2023-02-21T04:40:24.152Z,75.55
2023-02-21T04:42:50.852Z,75.53
2023-02-21T04:45:17.230Z,75.49
2023-02-21T04:47:43.888Z,75.64
2023-02-21T04:50:10.485Z,75.44
2023-02-21T04:52:40.399Z,75.56
2023-02-21T04:55:08.288Z,75.68
2023-02-21T04:57:35.059Z,75.84
2023-02-21T05:00:01.456Z,76.20
2023-02-21T05:02:28.222Z,76.26
2023-02-21T05:04:54.800Z,76.29
2023-02-21T05:07:21.277Z,76.50
2023-02-21T05:09:47.804Z,76.49
2023-02-21T05:12:14.886Z,76.83
2023-02-21T05:14:41.543Z,76.97
2023-02-21T05:17:08.749Z,76.88
2023-02-21T05:19:35.567Z,76.97
2023-02-21T05:22:03.474Z,76.89
2023-02-21T05:24:30.572Z,77.02
2023-02-21T05:26:58.032Z,76.88
2023-02-21T05:29:25.184Z,76.98
2023-02-21T05:31:51.682Z,77.04
2023-02-21T05:34:19.292Z,76.84
2023-02-21T05:36:46.042Z,76.82
2023-02-21T05:39:12.624Z,76.79
2023-02-21T05:41:39.361Z,76.75
2023-02-21T05:44:06.511Z,76.66
2023-02-21T05:46:34.554Z,76.62
2023-02-21T05:49:03.254Z,76.55
2023-02-21T05:51:40.720Z,76.68
2023-02-21T05:54:08.823Z,76.66
2023-02-21T05:56:42.876Z,76.71
2023-02-21T05:59:09.854Z,76.58
2023-02-21T06:01:36.295Z,76.76
2023-02-21T06:04:03.456Z,76.73
2023-02-21T06:06:30.290Z,76.82
2023-02-21T06:08:56.753Z,76.90
2023-02-21T06:11:26.460Z,76.86
2023-02-21T06:13:54.123Z,77.05
2023-02-21T06:16:21.262Z,77.27
2023-02-21T06:18:54.648Z,77.40
2023-02-21T06:21:21.301Z,77.70
2023-02-21T06:23:48.023Z,77.77
2023-02-21T06:26:15.206Z,77.72
2023-02-21T06:28:41.897Z,77.89
2023-02-21T06:31:08.448Z,77.72
2023-02-21T06:33:35.128Z,78.00
2023-02-21T06:36:06.698Z,78.02
2023-02-21T06:38:34.018Z,78.21
2023-02-21T06:41:05.334Z,78.28
2023-02-21T06:43:31.887Z,78.29
2023-02-21T06:45:58.479Z,78.12
2023-02-21T06:48:25.214Z,78.28
2023-02-21T06:50:51.926Z,78.18
2023-02-21T06:53:18.398Z,78.19
2023-02-21T06:55:44.959Z,78.30
2023-02-21T06:58:11.651Z,78.40
2023-02-21T07:00:38.029Z,78.42
2023-02-21T07:03:04.608Z,78.27
2023-02-21T07:05:34.150Z,78.21
2023-02-21T07:08:01.807Z,78.29
2023-02-21T07:10:29.356Z,78.37
2023-02-21T07:12:56.239Z,78.36
2023-02-21T07:15:22.804Z,78.29
2023-02-21T07:17:49.778Z,78.11
2023-02-21T07:20:16.882Z,78.22
2023-02-21T07:22:43.538Z,78.15
2023-02-21T07:25:13.528Z,78.03
2023-02-21T07:27:40.121Z,78.09
2023-02-21T07:30:07.216Z,78.03
2023-02-21T07:32:33.739Z,78.10
2023-02-21T07:35:00.327Z,78.30
2023-02-21T07:37:27.029Z,78.35
2023-02-21T07:39:53.607Z,78.53
2023-02-21T07:42:20.253Z,78.29
2023-02-21T07:44:47.374Z,78.55
2023-02-21T07:47:14.249Z,78.29
2023-02-21T07:49:40.864Z,78.27
2023-02-21T07:52:07.473Z,78.39
2023-02-21T07:54:34.501Z,78.29
2023-02-21T07:57:01.291Z,78.35
2023-02-21T07:59:28.340Z,78.33
2023-02-21T08:01:55.266Z,78.37
2023-02-21T08:04:23.523Z,78.15
2023-02-21T08:06:50.097Z,78.14
2023-02-21T08:09:16.890Z,78.14
2023-02-21T08:11:43.878Z,78.09
2023-02-21T08:14:10.492Z,78.07
2023-02-21T08:16:37.559Z,78.03
2023-02-21T08:19:05.081Z,78.14
2023-02-21T08:21:31.651Z,78.09
2023-02-21T08:23:58.664Z,78.09
2023-02-21T08:26:25.652Z,77.99
2023-02-21T08:28:52.675Z,78.23
2023-02-21T08:31:19.986Z,78.53
2023-02-21T08:33:46.561Z,78.66
2023-02-21T08:36:13.460Z,78.97
2023-02-21T08:38:40.670Z,78.86
2023-02-21T08:41:07.486Z,78.82
2023-02-21T08:43:34.166Z,78.69
2023-02-21T08:46:02.333Z,78.65
2023-02-21T08:48:30.003Z,78.75
2023-02-21T08:50:56.854Z,78.70
2023-02-21T08:53:23.756Z,78.78
2023-02-21T08:55:50.344Z,78.76
2023-02-21T08:58:16.919Z,78.83
2023-02-21T09:00:44.044Z,78.93
2023-02-21T09:03:10.568Z,79.07
2023-02-21T09:05:38.699Z,79.24
2023-02-21T09:08:09.488Z,79.33
2023-02-21T09:10:36.080Z,79.30
2023-02-21T09:13:03.293Z,79.32
2023-02-21T09:15:30.076Z,79.24
2023-02-21T09:17:56.938Z,79.12
2023-02-21T09:20:25.352Z,78.97
2023-02-21T09:22:52.243Z,78.84
2023-02-21T09:25:23.892Z,78.77
2023-02-21T09:27:54.078Z,78.49
2023-02-21T09:30:25.884Z,78.55
2023-02-21T09:32:52.525Z,78.34
2023-02-21T09:35:19.042Z,78.17
2023-02-21T09:37:46.774Z,78.14
2023-02-21T09:40:21.397Z,78.05
2023-02-21T09:42:50.665Z,77.81
2023-02-21T09:45:19.203Z,77.80
2023-02-21T09:47:49.324Z,77.53
2023-02-21T09:50:19.167Z,77.22
2023-02-21T09:52:46.591Z,77.11
2023-02-21T09:55:35.499Z,76.77
2023-02-21T09:58:02.295Z,76.73
2023-02-21T10:00:37.163Z,76.98
2023-02-21T10:03:42.455Z,76.72
2023-02-21T10:06:27.726Z,76.69
2023-02-21T10:09:23.275Z,76.15
2023-02-21T10:12:08.280Z,75.70
2023-02-21T10:14:44.013Z,75.30
2023-02-21T10:17:18.481Z,75.46
2023-02-21T10:19:49.574Z,75.54
2023-02-21T10:22:26.038Z,75.29
2023-02-21T10:24:53.636Z,75.26
2023-02-21T10:27:23.320Z,74.98
2023-02-21T10:30:05.300Z,74.53
2023-02-21T10:32:32.311Z,74.45
2023-02-21T10:34:59.049Z,74.42
2023-02-21T10:37:34.246Z,74.69
2023-02-21T10:40:08.117Z,74.38
2023-02-21T10:42:54.884Z,74.38
2023-02-21T10:45:27.298Z,74.82
2023-02-21T10:48:01.452Z,75.33
2023-02-21T10:50:37.444Z,76.05
2023-02-21T10:53:04.350Z,76.66
2023-02-21T10:55:33.462Z,77.30
2023-02-21T10:58:09.372Z,77.73
2023-02-21T11:00:39.465Z,77.61
2023-02-21T11:03:22.406Z,77.86
2023-02-21T11:05:52.685Z,78.28
2023-02-21T11:08:43.264Z,78.27
2023-02-21T11:11:10.583Z,78.28
2023-02-21T11:13:37.332Z,78.53
2023-02-21T11:16:32.615Z,78.38
2023-02-21T11:19:06.644Z,78.50
2023-02-21T11:21:33.726Z,78.57
2023-02-21T11:24:03.156Z,78.41
2023-02-21T11:26:35.559Z,78.36
2023-02-21T11:29:09.196Z,78.29
2023-02-21T11:31:35.913Z,78.16
2023-02-21T11:34:05.672Z,77.91
2023-02-21T11:36:35.143Z,77.78
2023-02-21T11:39:06.940Z,77.33
2023-02-21T11:41:48.028Z,77.23
2023-02-21T11:44:30.028Z,76.57
2023-02-21T11:47:18.556Z,76.70
2023-02-21T11:50:07.301Z,76.70
2023-02-21T11:52:33.902Z,76.56
2023-02-21T11:55:00.609Z,76.49
2023-02-21T11:57:41.682Z,76.83
2023-02-21T12:00:39.935Z,77.29
2023-02-21T12:03:21.961Z,77.56
2023-02-21T12:06:00.585Z,77.64
2023-02-21T12:08:38.050Z,77.53
2023-02-21T12:11:11.532Z,77.62
2023-02-21T12:13:57.859Z,77.17
2023-02-21T12:16:42.620Z,77.16
2023-02-21T12:19:18.873Z,76.71
2023-02-21T12:22:16.450Z,76.44
2023-02-21T12:24:58.445Z,76.21
2023-02-21T12:28:03.628Z,75.91
2023-02-21T12:30:44.948Z,76.06
2023-02-21T12:33:44.412Z,75.63
2023-02-21T12:36:20.035Z,75.46
2023-02-21T12:39:00.041Z,75.51
2023-02-21T12:41:29.545Z,75.24
2023-02-21T12:44:21.713Z,75.06
2023-02-21T12:46:58.430Z,75.27
2023-02-21T12:49:44.589Z,74.77
2023-02-21T12:52:34.449Z,74.38
2023-02-21T12:55:13.731Z,74.65
2023-02-21T12:57:46.343Z,74.41
2023-02-21T13:00:31.939Z,74.56
2023-02-21T13:02:58.765Z,74.55
2023-02-21T13:05:41.939Z,74.33
2023-02-21T13:08:26.173Z,74.23
2023-02-21T13:11:05.516Z,74.09
2023-02-21T13:13:33.087Z,74.02
2023-02-21T13:16:04.067Z,73.95
2023-02-21T13:18:40.552Z,73.40
2023-02-21T13:21:45.272Z,72.93
2023-02-21T13:24:31.905Z,73.15
2023-02-21T13:27:01.577Z,73.22
2023-02-21T13:29:31.336Z,73.01
2023-02-21T13:32:02.262Z,73.03
2023-02-21T13:34:38.240Z,72.59
2023-02-21T13:37:07.309Z,72.56
2023-02-21T13:39:37.926Z,72.47
2023-02-21T13:42:10.401Z,72.59
2023-02-21T13:44:44.192Z,72.40
2023-02-21T13:47:16.370Z,72.44
2023-02-21T13:49:46.987Z,72.24
2023-02-21T13:52:13.512Z,72.41
2023-02-21T13:55:15.290Z,72.44
2023-02-21T13:57:43.206Z,71.96
2023-02-21T14:00:25.133Z,71.86
2023-02-21T14:03:00.632Z,71.96
2023-02-21T14:05:49.692Z,71.87
2023-02-21T14:08:37.505Z,71.35
2023-02-21T14:11:06.968Z,71.28
2023-02-21T14:13:55.725Z,71.29
2023-02-21T14:16:30.915Z,71.41
2023-02-21T14:19:06.926Z,71.35
2023-02-21T14:21:45.337Z,71.44
2023-02-21T14:24:26.478Z,71.58
2023-02-21T14:27:01.876Z,71.95
2023-02-21T14:29:34.561Z,71.89
2023-02-21T14:32:04.188Z,71.77
2023-02-21T14:34:46.613Z,71.77
2023-02-21T14:37:18.944Z,71.81
2023-02-21T14:39:52.150Z,71.92
2023-02-21T14:43:01.897Z,71.84
2023-02-21T14:45:40.889Z,71.84
2023-02-21T14:48:37.206Z,71.94
2023-02-21T14:51:09.848Z,71.97
2023-02-21T14:53:56.730Z,71.96
2023-02-21T14:56:46.852Z,72.19
2023-02-21T14:59:31.831Z,72.13
2023-02-21T15:01:58.719Z,72.07
2023-02-21T15:04:28.322Z,71.69
2023-02-21T15:07:27.826Z,71.61
2023-02-21T15:10:27.919Z,71.31
2023-02-21T15:12:58.402Z,71.16
2023-02-21T15:15:31.697Z,70.77
2023-02-21T15:18:05.621Z,70.44
2023-02-21T15:20:34.706Z,70.58
2023-02-21T15:23:02.729Z,70.32
2023-02-21T15:25:29.324Z,70.54
2023-02-21T15:27:56.993Z,70.36
2023-02-21T15:30:27.938Z,70.67
2023-02-21T15:33:18.506Z,70.42
2023-02-21T15:35:57.207Z,70.50
2023-02-21T15:38:32.232Z,70.53
2023-02-21T15:41:06.506Z,70.76
2023-02-21T15:43:38.965Z,71.05
2023-02-21T15:46:08.200Z,70.76
2023-02-21T15:48:35.239Z,70.50
2023-02-21T15:51:04.420Z,70.47
2023-02-21T15:53:31.885Z,70.28
2023-02-21T15:56:20.803Z,70.12
2023-02-21T15:59:06.396Z,70.03
2023-02-21T16:01:33.214Z,70.05
2023-02-21T16:04:21.554Z,70.20
2023-02-21T16:06:53.875Z,70.25
2023-02-21T16:09:27.510Z,70.18
2023-02-21T16:12:18.548Z,70.25
2023-02-21T16:14:56.094Z,70.03
2023-02-21T16:17:25.615Z,70.04
2023-02-21T16:20:01.795Z,70.11
2023-02-21T16:22:43.089Z,70.29
2023-02-21T16:25:24.164Z,70.16
2023-02-21T16:27:56.955Z,70.29
2023-02-21T16:30:35.111Z,70.09
2023-02-21T16:33:04.188Z,69.98
2023-02-21T16:35:32.298Z,69.98
2023-02-21T16:38:00.100Z,69.62
2023-02-21T16:40:29.577Z,69.47
2023-02-21T16:42:57.196Z,69.48
2023-02-21T16:45:24.581Z,69.24
2023-02-21T16:47:56.867Z,69.38
2023-02-21T16:50:32.022Z,68.99
2023-02-21T16:52:59.753Z,69.26
2023-02-21T16:55:27.575Z,69.28
2023-02-21T16:57:57.968Z,69.48
2023-02-21T17:00:24.484Z,69.55
2023-02-21T17:02:52.593Z,69.69
2023-02-21T17:05:20.799Z,69.86
2023-02-21T17:07:52.354Z,70.08
2023-02-21T17:10:20.072Z,70.09
2023-02-21T17:12:47.495Z,70.35
2023-02-21T17:15:14.004Z,70.29
2023-02-21T17:17:41.812Z,70.55
2023-02-21T17:20:16.047Z,70.37
2023-02-21T17:22:42.774Z,70.46
2023-02-21T17:25:10.069Z,70.38
2023-02-21T17:27:36.656Z,70.48
2023-02-21T17:30:05.541Z,70.38
2023-02-21T17:32:32.265Z,70.48
2023-02-21T17:34:58.643Z,70.72
2023-02-21T17:37:25.774Z,70.64
2023-02-21T17:39:54.459Z,70.87
2023-02-21T17:42:21.888Z,70.99
2023-02-21T17:44:51.369Z,70.97
2023-02-21T17:47:19.287Z,71.15
2023-02-21T17:49:48.174Z,71.14
2023-02-21T17:52:15.252Z,71.13
2023-02-21T17:54:42.244Z,71.35
2023-02-21T17:57:09.376Z,71.27
2023-02-21T17:59:36.830Z,71.36
2023-02-21T18:02:04.800Z,71.37
2023-02-21T18:04:32.057Z,71.33
2023-02-21T18:06:59.377Z,71.34
2023-02-21T18:09:26.108Z,71.56
2023-02-21T18:11:55.105Z,71.45
2023-02-21T18:14:22.729Z,71.58
2023-02-21T18:16:49.290Z,71.57
2023-02-21T18:19:16.241Z,71.69
2023-02-21T18:21:44.928Z,71.88
2023-02-21T18:24:12.701Z,71.87
2023-02-21T18:26:39.537Z,72.07
2023-02-21T18:29:06.749Z,72.01
2023-02-21T18:31:36.728Z,72.02
2023-02-21T18:34:04.702Z,71.97
2023-02-21T18:36:33.466Z,72.11
2023-02-21T18:39:01.217Z,72.10
2023-02-21T18:41:27.774Z,72.13
2023-02-21T18:43:54.445Z,72.04
2023-02-21T18:46:21.489Z,72.13
2023-02-21T18:48:49.736Z,72.12
2023-02-21T18:51:19.391Z,72.25
2023-02-21T18:53:47.886Z,72.29
2023-02-21T18:56:16.732Z,72.46
2023-02-21T18:58:43.329Z,72.27
2023-02-21T19:01:14.405Z,72.26
2023-02-21T19:03:41.668Z,72.37
2023-02-21T19:06:11.336Z,72.55
2023-02-21T19:08:37.962Z,72.34
2023-02-21T19:11:04.699Z,72.41
2023-02-21T19:13:31.082Z,72.37
2023-02-21T19:15:59.373Z,72.25
2023-02-21T19:18:28.188Z,72.14
2023-02-21T19:20:54.808Z,72.19
2023-02-21T19:23:21.533Z,72.00
2023-02-21T19:25:48.238Z,72.06
2023-02-21T19:28:15.067Z,72.03
2023-02-21T19:30:41.777Z,71.35
2023-02-21T19:33:11.349Z,71.26
2023-02-21T19:35:39.109Z,71.03
2023-02-21T19:38:07.411Z,70.92
2023-02-21T19:40:35.190Z,70.27
2023-02-21T19:43:02.343Z,70.00
2023-02-21T19:45:29.406Z,69.72
2023-02-21T19:47:55.959Z,69.48
2023-02-21T19:50:22.818Z,69.44
2023-02-21T19:52:54.020Z,69.10
2023-02-21T19:55:20.712Z,69.13
2023-02-21T19:57:47.441Z,69.13
2023-02-21T20:00:14.867Z,69.22
2023-02-21T20:02:43.949Z,68.80
2023-02-21T20:05:13.320Z,68.25
2023-02-21T20:07:40.644Z,68.20
2023-02-21T20:10:08.457Z,68.39
2023-02-21T20:12:35.352Z,67.98
2023-02-21T20:15:02.953Z,68.10
2023-02-21T20:17:30.074Z,68.12
2023-02-21T20:19:56.516Z,67.97
2023-02-21T20:22:23.354Z,67.89
2023-02-21T20:24:50.177Z,67.89
2023-02-21T20:27:17.143Z,68.01
2023-02-21T20:29:43.686Z,68.06
2023-02-21T20:32:10.470Z,67.83
2023-02-21T20:34:38.782Z,67.90
2023-02-21T20:37:06.177Z,68.19
2023-02-21T20:39:32.748Z,67.83
2023-02-21T20:42:01.248Z,67.89
2023-02-21T20:44:36.476Z,67.77
2023-02-21T20:47:04.934Z,67.86
2023-02-21T20:49:34.583Z,67.70
2023-02-21T20:52:01.492Z,67.96
2023-02-21T20:54:28.023Z,67.70
2023-02-21T20:56:56.368Z,67.58
2023-02-21T20:59:31.732Z,67.27
2023-02-21T21:01:59.086Z,67.51
2023-02-21T21:04:28.670Z,67.33
2023-02-21T21:07:01.167Z,67.25
2023-02-21T21:09:28.250Z,67.05
2023-02-21T21:12:00.098Z,67.17
2023-02-21T21:14:28.270Z,67.26
2023-02-21T21:16:56.395Z,67.19
2023-02-21T21:19:26.067Z,67.15
2023-02-21T21:21:53.267Z,67.32
2023-02-21T21:24:20.722Z,67.25
2023-02-21T21:26:52.507Z,67.05
2023-02-21T21:29:23.557Z,67.18
2023-02-21T21:31:52.966Z,67.21
2023-02-21T21:34:22.467Z,67.39
2023-02-21T21:36:50.930Z,67.42
2023-02-21T21:39:22.052Z,67.15
2023-02-21T21:41:58.313Z,67.38
2023-02-21T21:44:26.500Z,67.18
2023-02-21T21:46:53.797Z,67.48
2023-02-21T21:49:22.748Z,67.58
2023-02-21T21:51:49.557Z,67.57
2023-02-21T21:54:20.097Z,67.55
2023-02-21T21:56:47.957Z,67.85
2023-02-21T21:59:20.137Z,67.64
2023-02-21T22:01:47.240Z,67.60
2023-02-21T22:04:14.053Z,67.82
2023-02-21T22:06:40.795Z,67.73
2023-02-21T22:09:08.642Z,67.49
2023-02-21T22:11:36.041Z,67.30
2023-02-21T22:14:03.028Z,67.72
2023-02-21T22:16:37.629Z,67.47
2023-02-21T22:19:04.322Z,67.46
2023-02-21T22:21:31.311Z,67.28
2023-02-21T22:23:58.254Z,67.39
2023-02-21T22:26:26.488Z,67.38
2023-02-21T22:28:53.464Z,67.50
2023-02-21T22:31:22.553Z,67.75
2023-02-21T22:33:49.139Z,67.54
2023-02-21T22:36:17.603Z,67.75
2023-02-21T22:38:51.013Z,68.05
2023-02-21T22:41:22.958Z,68.00
2023-02-21T22:43:50.073Z,68.20
2023-02-21T22:46:17.523Z,68.09
2023-02-21T22:48:44.700Z,68.45
2023-02-21T22:51:12.346Z,68.63
2023-02-21T22:53:39.142Z,68.80
2023-02-21T22:56:09.251Z,68.73
2023-02-21T22:58:36.537Z,68.59
2023-02-21T23:01:07.937Z,68.76
2023-02-21T23:03:35.078Z,68.96
2023-02-21T23:06:01.910Z,69.12
2023-02-21T23:08:29.117Z,69.12
2023-02-21T23:10:56.175Z,68.90
2023-02-21T23:13:24.083Z,69.08
2023-02-21T23:15:51.252Z,68.91
2023-02-21T23:18:22.520Z,69.29
2023-02-21T23:20:53.341Z,69.17
2023-02-21T23:23:25.332Z,69.38
2023-02-21T23:25:53.611Z,69.11
2023-02-21T23:28:20.086Z,69.66
2023-02-21T23:30:49.002Z,69.75
2023-02-21T23:33:29.750Z,69.55
2023-02-21T23:35:57.182Z,69.67
2023-02-21T23:38:27.393Z,69.63
2023-02-21T23:40:55.758Z,69.86
2023-02-21T23:43:28.557Z,69.64
2023-02-21T23:45:58.360Z,69.88
2023-02-21T23:48:25.339Z,69.91
2023-02-21T23:50:57.094Z,69.69
2023-02-21T23:53:26.123Z,69.89
2023-02-21T23:55:57.074Z,69.97
2023-02-21T23:58:25.348Z,70.09
